createdAt,value
2018-11-04T00:00:39.617Z,5.07
2018-11-04T00:03:06.565Z,4.30
2018-11-04T00:05:33.513Z,2.50
2018-11-04T00:08:01.821Z,4.12
2018-11-04T00:10:28.834Z,4.13
2018-11-04T00:12:55.784Z,3.20
2018-11-04T00:15:22.733Z,6.45
2018-11-04T00:17:49.776Z,3.53
2018-11-04T00:20:16.866Z,3.53
2018-11-04T00:22:45.925Z,5.32
2018-11-04T00:25:12.969Z,3.05
2018-11-04T00:27:39.915Z,3.77
2018-11-04T00:30:07.271Z,4.43
2018-11-04T00:32:34.327Z,4.87
2018-11-04T00:35:01.373Z,3.55
2018-11-04T00:37:30.675Z,2.90
2018-11-04T00:39:57.723Z,2.83
2018-11-04T00:42:24.684Z,3.80
2018-11-04T00:44:51.716Z,6.53
2018-11-04T00:47:18.769Z,10.93
2018-11-04T00:49:45.811Z,2.90
2018-11-04T00:52:12.859Z,3.97
2018-11-04T00:54:39.915Z,3.90
2018-11-04T00:57:06.854Z,3.00
2018-11-04T00:59:33.803Z,4.28
2018-11-04T01:02:00.848Z,3.87
2018-11-04T01:04:28.101Z,3.80
2018-11-04T01:06:55.150Z,3.50
2018-11-04T01:09:22.204Z,7.13
2018-11-04T01:11:49.274Z,10.07
2018-11-04T01:14:16.296Z,4.13
2018-11-04T01:16:58.090Z,4.33
2018-11-04T01:19:44.504Z,3.77
2018-11-04T01:22:26.792Z,3.63
2018-11-04T01:25:00.250Z,4.40
2018-11-04T01:27:31.373Z,5.97
2018-11-04T01:29:58.396Z,5.43
2018-11-04T01:32:25.336Z,4.60
2018-11-04T01:34:52.285Z,4.07
2018-11-04T01:37:19.331Z,8.70
2018-11-04T01:39:46.385Z,5.17
2018-11-04T01:42:13.261Z,4.47
2018-11-04T01:44:40.271Z,3.70
2018-11-04T01:47:07.321Z,5.03
2018-11-04T01:49:34.375Z,3.30
2018-11-04T01:52:01.418Z,4.13
2018-11-04T01:54:28.467Z,4.27
2018-11-04T01:56:55.617Z,3.00
2018-11-04T01:59:22.670Z,2.80
2018-11-04T02:01:49.715Z,4.87
2018-11-04T02:04:16.665Z,3.73
2018-11-04T02:06:43.709Z,2.80
2018-11-04T02:09:11.065Z,4.57
2018-11-04T02:11:38.123Z,6.17
2018-11-04T02:14:05.166Z,3.57
2018-11-04T02:16:32.465Z,3.37
2018-11-04T02:18:59.464Z,3.17
2018-11-04T02:21:26.513Z,3.03
2018-11-04T02:23:54.181Z,4.07
2018-11-04T02:26:21.225Z,3.73
2018-11-04T02:28:48.274Z,3.60
2018-11-04T02:31:15.327Z,9.40
2018-11-04T02:33:42.267Z,3.73
2018-11-04T02:36:09.214Z,4.57
2018-11-04T02:38:36.262Z,4.80
2018-11-04T02:41:03.982Z,4.23
2018-11-04T02:43:33.739Z,7.80
2018-11-04T02:46:00.691Z,8.57
2018-11-04T02:48:27.735Z,6.57
2018-11-04T02:50:54.783Z,6.33
2018-11-04T02:53:21.836Z,5.73
2018-11-04T02:55:48.777Z,4.00
2018-11-04T02:58:15.771Z,5.63
2018-11-04T03:00:42.772Z,8.13
2018-11-04T03:03:09.826Z,6.33
2018-11-04T03:05:36.869Z,6.50
2018-11-04T03:08:03.917Z,7.00
2018-11-04T03:10:48.458Z,9.67
2018-11-04T03:13:33.482Z,8.13
2018-11-04T03:16:06.030Z,6.90
2018-11-04T03:18:33.072Z,13.67
2018-11-04T03:21:00.127Z,10.97
2018-11-04T03:23:27.170Z,11.07
2018-11-04T03:25:54.222Z,8.23
2018-11-04T03:28:21.780Z,12.33
2018-11-04T03:30:50.122Z,11.83
2018-11-04T03:33:17.212Z,7.60
2018-11-04T03:35:44.201Z,8.03
2018-11-04T03:38:11.204Z,10.70
2018-11-04T03:40:38.257Z,9.20
2018-11-04T03:43:05.202Z,14.57
2018-11-04T03:45:32.349Z,7.27
2018-11-04T03:47:59.404Z,6.60
2018-11-04T03:50:26.445Z,7.47
2018-11-04T03:52:53.494Z,10.90
2018-11-04T03:55:20.547Z,7.10
2018-11-04T03:57:47.594Z,10.90
2018-11-04T04:00:14.642Z,5.70
2018-11-04T04:02:41.587Z,7.30
2018-11-04T04:05:08.638Z,9.47
2018-11-04T04:07:35.926Z,8.90
2018-11-04T04:10:03.347Z,6.13
2018-11-04T04:12:30.394Z,8.60
2018-11-04T04:14:58.161Z,7.77
2018-11-04T04:17:25.217Z,6.57
2018-11-04T04:19:52.157Z,8.70
2018-11-04T04:22:19.208Z,7.27
2018-11-04T04:24:46.251Z,8.40
2018-11-04T04:27:14.837Z,5.83
2018-11-04T04:29:42.090Z,9.93
2018-11-04T04:32:09.138Z,7.53
2018-11-04T04:34:36.192Z,7.57
2018-11-04T04:37:03.342Z,8.40
2018-11-04T04:39:30.388Z,9.97
2018-11-04T04:41:57.434Z,6.97
2018-11-04T04:44:24.488Z,7.13
2018-11-04T04:46:51.430Z,10.17
2018-11-04T04:49:18.484Z,6.63
2018-11-04T04:51:46.252Z,7.63
2018-11-04T04:54:13.292Z,6.97
2018-11-04T04:56:42.020Z,8.37
2018-11-04T04:59:09.028Z,8.07
2018-11-04T05:01:36.081Z,7.80
2018-11-04T05:04:03.022Z,8.77
2018-11-04T05:06:29.969Z,7.93
2018-11-04T05:08:57.019Z,9.37
2018-11-04T05:11:23.925Z,7.70
2018-11-04T05:13:50.914Z,10.50
2018-11-04T05:16:17.959Z,6.87
2018-11-04T05:18:44.929Z,7.13
2018-11-04T05:21:12.259Z,7.17
2018-11-04T05:23:39.308Z,10.30
2018-11-04T05:26:06.669Z,10.83
2018-11-04T05:28:35.863Z,7.17
2018-11-04T05:31:02.856Z,8.40
2018-11-04T05:33:29.860Z,9.10
2018-11-04T05:35:56.907Z,6.47
2018-11-04T05:38:24.056Z,10.90
2018-11-04T05:40:51.003Z,6.37
2018-11-04T05:43:18.052Z,11.33
2018-11-04T05:45:44.942Z,11.30
2018-11-04T05:48:11.952Z,13.50
2018-11-04T05:50:38.837Z,9.23
2018-11-04T05:53:05.990Z,8.23
2018-11-04T05:55:32.994Z,9.47
2018-11-04T05:58:00.042Z,9.80
2018-11-04T06:00:28.341Z,9.77
2018-11-04T06:02:55.569Z,9.37
2018-11-04T06:05:22.646Z,11.73
2018-11-04T06:07:51.099Z,9.27
2018-11-04T06:10:18.558Z,12.80
2018-11-04T06:12:45.505Z,10.97
2018-11-04T06:15:12.552Z,9.00
2018-11-04T06:17:39.606Z,9.53
2018-11-04T06:20:06.649Z,9.50
2018-11-04T06:22:33.698Z,10.10
2018-11-04T06:25:00.754Z,9.67
2018-11-04T06:27:27.741Z,10.40
2018-11-04T06:29:54.765Z,7.77
2018-11-04T06:32:21.796Z,10.37
2018-11-04T06:34:49.023Z,9.70
2018-11-04T06:37:16.096Z,11.83
2018-11-04T06:39:43.139Z,12.50
2018-11-04T06:42:11.731Z,11.80
2018-11-04T06:44:38.773Z,10.07
2018-11-04T06:47:05.847Z,14.13
2018-11-04T06:49:33.280Z,10.67
2018-11-04T06:52:00.336Z,10.17
2018-11-04T06:54:27.377Z,15.30
2018-11-04T06:56:54.427Z,11.50
2018-11-04T06:59:22.293Z,15.43
2018-11-04T07:01:50.587Z,10.73
2018-11-04T07:04:17.624Z,11.17
2018-11-04T07:06:44.667Z,12.00
2018-11-04T07:09:13.060Z,12.10
2018-11-04T07:11:40.615Z,12.73
2018-11-04T07:14:07.656Z,18.00
2018-11-04T07:16:34.706Z,11.07
2018-11-04T07:19:01.762Z,11.00
2018-11-04T07:21:28.803Z,11.70
2018-11-04T07:23:55.852Z,8.73
2018-11-04T07:26:22.905Z,10.33
2018-11-04T07:28:49.899Z,10.77
2018-11-04T07:31:16.901Z,10.87
2018-11-04T07:33:43.945Z,9.37
2018-11-04T07:36:10.993Z,7.83
2018-11-04T07:38:38.864Z,7.43
2018-11-04T07:41:05.908Z,11.20
2018-11-04T07:43:33.058Z,10.30
2018-11-04T07:46:00.422Z,10.57
2018-11-04T07:48:27.463Z,9.23
2018-11-04T07:50:54.513Z,8.97
2018-11-04T07:53:21.576Z,10.07
2018-11-04T07:55:48.609Z,11.70
2018-11-04T07:58:15.658Z,11.07
2018-11-04T08:00:42.761Z,12.03
2018-11-04T08:03:09.756Z,10.50
2018-11-04T08:05:36.803Z,8.40
2018-11-04T08:08:03.859Z,8.53
2018-11-04T08:10:30.905Z,13.10
2018-11-04T08:12:57.889Z,13.30
2018-11-04T08:15:24.900Z,13.10
2018-11-04T08:17:51.944Z,9.97
2018-11-04T08:20:19.000Z,10.63
2018-11-04T08:22:46.042Z,10.65
2018-11-04T08:25:13.570Z,8.05
2018-11-04T08:27:40.571Z,10.35
2018-11-04T08:30:07.604Z,10.45
2018-11-04T08:32:34.645Z,9.85
2018-11-04T08:35:01.698Z,8.32
2018-11-04T08:37:28.640Z,12.90
2018-11-04T08:39:55.795Z,9.25
2018-11-04T08:42:23.865Z,9.07
2018-11-04T08:44:50.914Z,8.10
2018-11-04T08:47:19.294Z,10.90
2018-11-04T08:49:46.346Z,12.15
2018-11-04T08:52:13.390Z,11.20
2018-11-04T08:54:40.438Z,8.02
2018-11-04T08:57:07.383Z,8.13
2018-11-04T08:59:34.432Z,9.10
2018-11-04T09:02:01.487Z,9.98
2018-11-04T09:04:28.533Z,7.15
2018-11-04T09:06:55.580Z,9.10
2018-11-04T09:09:22.632Z,9.98
2018-11-04T09:11:49.675Z,8.93
2018-11-04T09:14:16.815Z,10.48
2018-11-04T09:16:43.719Z,10.02
2018-11-04T09:19:10.721Z,8.50
2018-11-04T09:21:38.411Z,8.25
2018-11-04T09:24:05.434Z,8.90
2018-11-04T09:26:32.383Z,11.20
2018-11-04T09:28:59.339Z,8.48
2018-11-04T09:31:26.480Z,8.55
2018-11-04T09:33:53.625Z,8.07
2018-11-04T09:36:21.519Z,8.73
2018-11-04T09:38:49.772Z,8.52
2018-11-04T09:41:16.834Z,9.15
2018-11-04T09:43:44.175Z,11.10
2018-11-04T09:46:12.048Z,8.68
2018-11-04T09:48:39.092Z,8.50
2018-11-04T09:51:06.140Z,11.68
2018-11-04T09:53:33.195Z,9.25
2018-11-04T09:56:00.134Z,6.80
2018-11-04T09:58:27.188Z,9.27
2018-11-04T10:00:54.233Z,8.13
2018-11-04T10:03:21.281Z,6.12
2018-11-04T10:05:48.581Z,12.15
2018-11-04T10:08:15.487Z,8.25
2018-11-04T10:10:42.735Z,9.82
2018-11-04T10:13:09.839Z,8.13
2018-11-04T10:15:37.445Z,8.75
2018-11-04T10:18:04.494Z,8.25
2018-11-04T10:20:31.764Z,9.27
2018-11-04T10:22:58.595Z,12.73
2018-11-04T10:25:25.743Z,9.57
2018-11-04T10:27:53.922Z,11.88
2018-11-04T10:30:21.051Z,10.52
2018-11-04T10:32:48.015Z,8.50
2018-11-04T10:35:15.068Z,10.77
2018-11-04T10:37:42.114Z,28.65
2018-11-04T10:40:09.161Z,39.80
2018-11-04T10:42:36.278Z,15.23
2018-11-04T10:45:03.206Z,14.80
2018-11-04T10:47:30.211Z,11.55
2018-11-04T10:49:57.290Z,9.48
2018-11-04T10:52:24.612Z,8.65
2018-11-04T10:54:51.663Z,11.68
2018-11-04T10:57:18.705Z,13.10
2018-11-04T10:59:50.119Z,11.90
2018-11-04T11:02:17.109Z,11.65
2018-11-04T11:04:44.168Z,9.77
2018-11-04T11:07:11.201Z,10.48
2018-11-04T11:09:38.259Z,11.00
2018-11-04T11:12:05.209Z,10.20
2018-11-04T11:14:32.250Z,10.13
2018-11-04T11:17:00.937Z,15.70
2018-11-04T11:19:28.702Z,9.38
2018-11-04T11:21:58.728Z,10.35
2018-11-04T11:24:25.769Z,11.12
2018-11-04T11:26:52.813Z,10.48
2018-11-04T11:29:19.861Z,11.32
2018-11-04T11:31:46.915Z,8.35
2018-11-04T11:34:13.959Z,8.57
2018-11-04T11:36:41.008Z,11.68
2018-11-04T11:39:07.953Z,13.02
2018-11-04T11:41:35.003Z,12.63
2018-11-04T11:44:02.056Z,11.90
2018-11-04T11:46:29.918Z,7.78
2018-11-04T11:48:56.972Z,13.57
2018-11-04T11:51:27.129Z,12.70
2018-11-04T11:53:54.241Z,10.95
2018-11-04T11:56:23.285Z,11.82
2018-11-04T11:58:50.798Z,8.05
2018-11-04T12:01:17.841Z,9.73
2018-11-04T12:03:44.942Z,11.65
2018-11-04T12:06:11.943Z,12.02
2018-11-04T12:08:38.988Z,14.57
2018-11-04T12:11:05.945Z,10.80
2018-11-04T12:13:32.984Z,10.55
2018-11-04T12:16:00.811Z,12.30
2018-11-04T12:18:27.801Z,11.68
2018-11-04T12:20:54.851Z,9.05
2018-11-04T12:23:22.281Z,12.32
2018-11-04T12:25:51.298Z,13.48
2018-11-04T12:28:18.377Z,13.50
2018-11-04T12:30:46.613Z,11.75
2018-11-04T12:33:13.658Z,13.35
2018-11-04T12:35:40.815Z,11.73
2018-11-04T12:38:08.003Z,9.93
2018-11-04T12:40:36.357Z,13.45
2018-11-04T12:43:04.455Z,13.60
2018-11-04T12:45:31.476Z,10.90
2018-11-04T12:47:58.535Z,11.38
2018-11-04T12:50:25.664Z,11.48
2018-11-04T12:52:52.913Z,10.05
2018-11-04T12:55:19.965Z,12.02
2018-11-04T12:57:47.008Z,9.45
2018-11-04T13:00:14.056Z,11.10
2018-11-04T13:02:41.111Z,13.38
2018-11-04T13:05:08.262Z,12.40
2018-11-04T13:07:36.334Z,12.52
2018-11-04T13:10:03.549Z,15.02
2018-11-04T13:12:31.669Z,12.55
2018-11-04T13:14:58.910Z,13.35
2018-11-04T13:17:25.957Z,12.35
2018-11-04T13:19:53.011Z,10.77
2018-11-04T13:22:20.056Z,12.55
2018-11-04T13:24:47.103Z,11.02
2018-11-04T13:27:15.588Z,13.40
2018-11-04T13:29:43.470Z,16.27
2018-11-04T13:32:10.502Z,12.93
2018-11-04T13:34:37.656Z,10.70
2018-11-04T13:37:05.009Z,12.00
2018-11-04T13:39:32.065Z,14.18
2018-11-04T13:41:59.214Z,14.35
2018-11-04T13:44:26.259Z,11.48
2018-11-04T13:46:53.306Z,14.02
2018-11-04T13:49:20.494Z,15.18
2018-11-04T13:51:47.608Z,14.32
2018-11-04T13:54:14.662Z,15.70
2018-11-04T13:56:42.627Z,14.90
2018-11-04T13:59:09.677Z,12.18
2018-11-04T14:01:36.729Z,13.48
2018-11-04T14:04:06.298Z,23.62
2018-11-04T14:06:33.279Z,15.48
2018-11-04T14:09:00.311Z,19.30
2018-11-04T14:11:28.245Z,15.57
2018-11-04T14:13:56.417Z,17.50
2018-11-04T14:16:23.419Z,19.15
2018-11-04T14:18:50.414Z,17.08
2018-11-04T14:21:17.416Z,16.87
2018-11-04T14:23:44.454Z,18.02
2018-11-04T14:26:11.513Z,15.25
2018-11-04T14:28:40.200Z,16.80
2018-11-04T14:31:07.310Z,16.40
2018-11-04T14:33:34.302Z,18.60
2018-11-04T14:36:01.346Z,17.27
2018-11-04T14:38:28.394Z,16.77
2018-11-04T14:40:56.983Z,18.30
2018-11-04T14:43:24.028Z,17.33
2018-11-04T14:45:51.089Z,22.13
2018-11-04T14:48:18.129Z,18.27
2018-11-04T14:50:45.173Z,19.73
2018-11-04T14:53:12.223Z,19.15
2018-11-04T14:55:39.277Z,19.67
2018-11-04T14:58:06.318Z,19.92
2018-11-04T15:00:33.368Z,20.02
2018-11-04T15:03:00.422Z,17.15
2018-11-04T15:05:27.468Z,18.30
2018-11-04T15:07:54.514Z,21.45
2018-11-04T15:10:21.566Z,21.23
2018-11-04T15:12:49.807Z,26.75
2018-11-04T15:15:16.887Z,22.02
2018-11-04T15:17:43.943Z,17.27
2018-11-04T15:20:11.008Z,12.98
2018-11-04T15:22:38.142Z,23.65
2018-11-04T15:25:05.186Z,22.58
2018-11-04T15:27:32.242Z,18.73
2018-11-04T15:29:59.287Z,14.68
2018-11-04T15:32:26.332Z,16.23
2018-11-04T15:34:53.353Z,20.50
2018-11-04T15:37:20.428Z,16.67
2018-11-04T15:39:47.476Z,19.17
2018-11-04T15:42:14.531Z,17.98
2018-11-04T15:44:41.576Z,17.33
2018-11-04T15:47:08.623Z,19.65
2018-11-04T15:49:35.675Z,20.10
2018-11-04T15:52:02.720Z,20.23
2018-11-04T15:54:31.149Z,14.73
2018-11-04T15:56:58.266Z,14.63
2018-11-04T15:59:25.299Z,15.93
2018-11-04T16:01:53.679Z,17.55
2018-11-04T16:04:21.301Z,19.50
2018-11-04T16:06:48.291Z,16.77
2018-11-04T16:09:15.342Z,23.90
2018-11-04T16:11:42.385Z,32.35
2018-11-04T16:14:09.436Z,17.80
2018-11-04T16:16:36.489Z,21.90
2018-11-04T16:19:04.186Z,22.13
2018-11-04T16:21:31.195Z,18.77
2018-11-04T16:23:58.248Z,17.55
2018-11-04T16:26:25.293Z,14.73
2018-11-04T16:28:53.877Z,20.95
2018-11-04T16:31:20.883Z,19.48
2018-11-04T16:33:48.282Z,20.80
2018-11-04T16:36:15.639Z,20.23
2018-11-04T16:38:42.691Z,25.88
2018-11-04T16:41:10.866Z,18.05
2018-11-04T16:43:37.922Z,20.02
2018-11-04T16:46:04.958Z,20.77
2018-11-04T16:48:31.911Z,18.42
2018-11-04T16:50:58.953Z,22.75
2018-11-04T16:53:26.004Z,21.70
2018-11-04T16:55:53.044Z,19.83
2018-11-04T16:58:20.099Z,26.58
2018-11-04T17:00:47.148Z,19.87
2018-11-04T17:03:14.202Z,21.52
2018-11-04T17:05:41.384Z,19.17
2018-11-04T17:08:08.293Z,22.10
2018-11-04T17:10:35.347Z,21.58
2018-11-04T17:13:02.390Z,21.23
2018-11-04T17:15:29.440Z,19.77
2018-11-04T17:17:56.518Z,18.48
2018-11-04T17:20:23.538Z,20.15
2018-11-04T17:22:50.488Z,21.92
2018-11-04T17:25:17.531Z,24.05
2018-11-04T17:27:44.581Z,19.42
2018-11-04T17:30:11.636Z,19.08
2018-11-04T17:32:38.678Z,24.23
2018-11-04T17:35:05.678Z,17.02
2018-11-04T17:37:32.825Z,17.85
2018-11-04T17:39:59.824Z,17.65
2018-11-04T17:42:26.872Z,22.42
2018-11-04T17:44:54.380Z,26.50
2018-11-04T17:47:21.385Z,22.50
2018-11-04T17:49:48.429Z,22.05
2018-11-04T17:52:15.686Z,25.98
2018-11-04T17:54:42.729Z,22.92
2018-11-04T17:57:09.778Z,25.55
2018-11-04T17:59:37.032Z,25.70
2018-11-04T18:02:04.081Z,21.08
2018-11-04T18:04:31.138Z,24.27
2018-11-04T18:07:00.744Z,22.52
2018-11-04T18:09:27.734Z,20.50
2018-11-04T18:11:54.961Z,21.73
2018-11-04T18:14:21.991Z,24.55
2018-11-04T18:16:49.044Z,21.08
2018-11-04T18:19:15.985Z,21.27
2018-11-04T18:21:43.035Z,25.08
2018-11-04T18:24:10.082Z,20.15
2018-11-04T18:26:37.130Z,25.92
2018-11-04T18:29:04.181Z,24.17
2018-11-04T18:31:31.222Z,22.20
2018-11-04T18:34:00.115Z,23.33
2018-11-04T18:36:27.170Z,22.08
2018-11-04T18:38:54.825Z,24.45
2018-11-04T18:41:22.089Z,22.48
2018-11-04T18:43:49.240Z,27.20
2018-11-04T18:46:16.388Z,24.63
2018-11-04T18:48:43.431Z,23.23
2018-11-04T18:51:10.486Z,27.10
2018-11-04T18:53:37.732Z,28.10
2018-11-04T18:56:05.090Z,20.20
2018-11-04T18:58:32.147Z,25.90
2018-11-04T19:00:59.193Z,22.92
2018-11-04T19:03:26.952Z,22.37
2018-11-04T19:05:54.000Z,26.85
2018-11-04T19:08:21.062Z,24.90
2018-11-04T19:10:48.105Z,22.80
2018-11-04T19:13:15.049Z,18.23
2018-11-04T19:15:42.093Z,25.35
2018-11-04T19:18:10.166Z,22.92
2018-11-04T19:20:38.755Z,27.87
2018-11-04T19:23:05.856Z,23.52
2018-11-04T19:25:34.108Z,26.58
2018-11-04T19:28:01.226Z,26.02
2018-11-04T19:30:30.474Z,22.15
2018-11-04T19:32:57.578Z,28.08
2018-11-04T19:35:24.569Z,23.38
2018-11-04T19:37:51.579Z,23.73
2018-11-04T19:40:18.634Z,26.77
2018-11-04T19:42:46.207Z,27.95
2018-11-04T19:45:21.330Z,27.10
2018-11-04T19:47:48.381Z,25.88
2018-11-04T19:50:15.428Z,24.83
2018-11-04T19:52:42.989Z,26.20
2018-11-04T19:55:10.027Z,23.40
2018-11-04T19:57:37.081Z,24.77
2018-11-04T20:00:05.564Z,23.92
2018-11-04T20:02:32.605Z,23.48
2018-11-04T20:04:59.691Z,23.75
2018-11-04T20:07:26.654Z,27.90
2018-11-04T20:09:53.750Z,23.92
2018-11-04T20:12:20.806Z,27.42
2018-11-04T20:14:47.855Z,20.80
2018-11-04T20:17:14.897Z,27.92
2018-11-04T20:19:57.773Z,21.67
2018-11-04T20:22:24.770Z,23.67
2018-11-04T20:24:51.818Z,21.90
2018-11-04T20:27:18.860Z,26.27
2018-11-04T20:29:45.854Z,22.48
2018-11-04T20:32:12.957Z,21.37
2018-11-04T20:34:40.008Z,24.75
2018-11-04T20:37:07.062Z,21.52
2018-11-04T20:39:48.962Z,22.60
2018-11-04T20:42:16.310Z,26.10
2018-11-04T20:44:43.377Z,24.67
2018-11-04T20:47:10.411Z,19.25
2018-11-04T20:49:52.307Z,20.85
2018-11-04T20:52:19.352Z,18.25
2018-11-04T20:54:47.269Z,15.57
2018-11-04T20:57:29.132Z,21.00
2018-11-04T20:59:56.165Z,16.23
2018-11-04T21:02:23.323Z,19.73
2018-11-04T21:04:50.269Z,15.95
2018-11-04T21:07:17.312Z,17.20
2018-11-04T21:09:44.444Z,16.67
2018-11-04T21:12:11.562Z,16.77
2018-11-04T21:14:42.250Z,17.20
2018-11-04T21:17:09.808Z,13.82
2018-11-04T21:19:36.861Z,15.63
2018-11-04T21:22:03.902Z,19.10
2018-11-04T21:24:32.179Z,15.82
2018-11-04T21:26:59.174Z,14.93
2018-11-04T21:29:26.414Z,16.73
2018-11-04T21:31:54.863Z,13.90
2018-11-04T21:34:21.916Z,18.08
2018-11-04T21:36:49.223Z,19.10
2018-11-04T21:39:16.679Z,16.77
2018-11-04T21:41:43.775Z,13.25
2018-11-04T21:44:10.943Z,13.95
2018-11-04T21:46:38.076Z,16.85
2018-11-04T21:49:05.534Z,12.95
2018-11-04T21:51:32.588Z,16.02
2018-11-04T21:53:59.630Z,13.62
2018-11-04T21:56:35.858Z,18.27
2018-11-04T21:59:02.842Z,14.95
2018-11-04T22:01:29.890Z,15.82
2018-11-04T22:03:57.175Z,20.00
2018-11-04T22:06:23.988Z,17.65
2018-11-04T22:08:51.139Z,17.52
2018-11-04T22:11:19.213Z,15.98
2018-11-04T22:13:46.288Z,16.52
2018-11-04T22:16:13.313Z,14.23
2018-11-04T22:18:40.972Z,13.35
2018-11-04T22:21:08.028Z,15.80
2018-11-04T22:23:35.074Z,14.90
2018-11-04T22:26:02.118Z,18.80
2018-11-04T22:28:29.173Z,15.20
2018-11-04T22:30:56.221Z,14.75
2018-11-04T22:33:23.267Z,15.55
2018-11-04T22:35:50.312Z,18.02
2018-11-04T22:38:17.366Z,15.85
2018-11-04T22:43:17.706Z,13.95
2018-11-04T22:45:44.879Z,15.23
2018-11-04T22:48:11.904Z,14.27
2018-11-04T22:50:40.643Z,17.60
2018-11-04T22:53:07.589Z,14.20
2018-11-04T22:55:34.689Z,17.35
2018-11-04T22:58:03.530Z,20.00
2018-11-04T23:00:30.834Z,13.52
2018-11-04T23:02:57.882Z,19.75
2018-11-04T23:05:24.936Z,17.25
2018-11-04T23:07:51.979Z,18.85
2018-11-04T23:10:19.335Z,16.60
2018-11-04T23:12:46.391Z,17.77
2018-11-04T23:15:13.434Z,15.25
2018-11-04T23:17:42.121Z,18.33
2018-11-04T23:20:09.167Z,18.23
2018-11-04T23:22:36.223Z,17.15
2018-11-04T23:25:03.988Z,17.05
2018-11-04T23:27:31.483Z,13.50
2018-11-04T23:29:58.489Z,16.55
2018-11-04T23:32:25.893Z,14.27
2018-11-04T23:34:54.435Z,16.45
2018-11-04T23:37:21.478Z,16.85
2018-11-04T23:39:48.526Z,17.75
2018-11-04T23:42:15.579Z,19.00
2018-11-04T23:44:43.044Z,17.40
2018-11-04T23:47:10.803Z,15.85
2018-11-04T23:49:37.848Z,14.63
2018-11-04T23:52:04.896Z,17.43
2018-11-04T23:54:31.950Z,15.82
2018-11-04T23:56:59.609Z,19.92
2018-11-04T23:59:26.558Z,15.85
